createdAt,value
2018-10-12T00:02:11.481Z,35.70
2018-10-12T00:04:39.681Z,35.90
2018-10-12T00:07:07.955Z,36.70
2018-10-12T00:09:36.239Z,36.90
2018-10-12T00:12:04.453Z,37.10
2018-10-12T00:14:32.654Z,36.80
2018-10-12T00:17:00.890Z,37.40
2018-10-12T00:19:29.173Z,37.00
2018-10-12T00:21:57.397Z,36.60
2018-10-12T00:24:25.594Z,35.40
2018-10-12T00:26:53.849Z,35.00
2018-10-12T00:29:22.153Z,35.50
2018-10-12T00:31:50.346Z,36.10
2018-10-12T00:34:18.532Z,36.70
2018-10-12T00:36:46.770Z,37.30
2018-10-12T00:39:15.204Z,37.90
2018-10-12T00:41:43.529Z,38.00
2018-10-12T00:44:11.731Z,37.80
2018-10-12T00:46:39.936Z,37.10
2018-10-12T00:49:08.969Z,37.00
2018-10-12T00:51:37.437Z,37.40
2018-10-12T00:54:05.645Z,37.70
2018-10-12T00:56:33.890Z,37.20
2018-10-12T00:59:02.354Z,37.70
2018-10-12T01:01:30.566Z,37.50
2018-10-12T01:03:58.784Z,37.60
2018-10-12T01:06:27.011Z,37.10
2018-10-12T01:08:55.174Z,36.80
2018-10-12T01:11:23.381Z,36.40
2018-10-12T01:13:51.617Z,36.50
2018-10-12T01:16:19.892Z,37.30
2018-10-12T01:18:48.198Z,36.80
2018-10-12T01:21:16.389Z,36.50
2018-10-12T01:23:44.671Z,35.20
2018-10-12T01:26:12.880Z,34.90
2018-10-12T01:28:41.072Z,34.90
2018-10-12T01:31:09.274Z,34.90
2018-10-12T01:33:37.553Z,35.10
2018-10-12T01:36:05.907Z,35.10
2018-10-12T01:38:34.096Z,35.30
2018-10-12T01:41:02.349Z,35.00
2018-10-12T01:43:30.550Z,34.40
2018-10-12T01:45:58.995Z,34.20
2018-10-12T01:48:27.205Z,34.70
2018-10-12T01:50:55.428Z,34.00
2018-10-12T01:53:23.661Z,33.50
2018-10-12T01:55:56.309Z,33.30
2018-10-12T01:58:24.560Z,33.60
2018-10-12T02:00:52.905Z,33.20
2018-10-12T02:03:21.255Z,33.00
2018-10-12T02:05:49.456Z,33.30
2018-10-12T02:08:17.655Z,33.60
2018-10-12T02:10:45.886Z,34.00
2018-10-12T02:13:14.393Z,34.10
2018-10-12T02:15:42.819Z,34.10
2018-10-12T02:18:11.001Z,34.00
2018-10-12T02:20:39.206Z,34.20
2018-10-12T02:23:07.433Z,34.40
2018-10-12T02:25:35.995Z,34.40
2018-10-12T02:28:04.180Z,34.30
2018-10-12T02:30:32.343Z,34.10
2018-10-12T02:33:00.681Z,34.10
2018-10-12T02:35:28.997Z,34.30
2018-10-12T02:37:57.183Z,34.50
2018-10-12T02:40:25.369Z,34.60
2018-10-12T02:42:53.565Z,34.80
2018-10-12T02:45:21.860Z,34.80
2018-10-12T02:47:50.053Z,35.50
2018-10-12T02:50:18.251Z,35.90
2018-10-12T02:52:46.552Z,36.40
2018-10-12T02:55:14.889Z,35.70
2018-10-12T02:57:43.115Z,35.70
2018-10-12T03:00:11.325Z,35.60
2018-10-12T03:02:39.528Z,35.70
2018-10-12T03:05:07.898Z,35.80
2018-10-12T03:07:36.355Z,36.20
2018-10-12T03:10:04.871Z,36.80
2018-10-12T03:12:33.146Z,37.00
2018-10-12T03:15:01.373Z,37.30
2018-10-12T03:17:29.721Z,37.60
2018-10-12T03:19:58.682Z,37.60
2018-10-12T03:22:26.873Z,37.50
2018-10-12T03:24:55.078Z,37.50
2018-10-12T03:27:23.269Z,37.20
2018-10-12T03:29:52.084Z,37.10
2018-10-12T03:32:20.488Z,36.90
2018-10-12T03:34:48.688Z,36.80
2018-10-12T03:37:16.933Z,37.20
2018-10-12T03:39:45.314Z,37.40
2018-10-12T03:42:13.548Z,37.30
2018-10-12T03:44:41.754Z,37.40
2018-10-12T03:47:10.420Z,37.50
2018-10-12T03:49:38.630Z,36.90
2018-10-12T03:52:09.054Z,36.90
2018-10-12T03:54:37.384Z,37.00
2018-10-12T03:57:06.137Z,37.10
2018-10-12T03:59:34.338Z,37.00
2018-10-12T04:02:02.541Z,37.10
2018-10-12T04:04:30.764Z,37.10
2018-10-12T04:06:59.614Z,37.30
2018-10-12T04:09:27.813Z,37.60
2018-10-12T04:11:56.038Z,37.40
2018-10-12T04:14:24.302Z,37.50
2018-10-12T04:16:52.627Z,37.60
2018-10-12T04:19:20.955Z,37.70
2018-10-12T04:21:49.240Z,37.80
2018-10-12T04:24:17.493Z,37.80
2018-10-12T04:26:45.680Z,37.80
2018-10-12T04:29:14.119Z,38.10
2018-10-12T04:31:42.431Z,37.90
2018-10-12T04:34:10.658Z,37.90
2018-10-12T04:36:39.588Z,38.20
2018-10-12T04:39:19.099Z,38.30
2018-10-12T04:41:47.321Z,38.60
2018-10-12T04:44:15.525Z,38.70
2018-10-12T04:46:44.377Z,38.80
2018-10-12T04:49:16.886Z,38.80
2018-10-12T04:51:59.706Z,38.80
2018-10-12T04:54:28.497Z,39.10
2018-10-12T04:56:56.706Z,39.20
2018-10-12T04:59:24.991Z,39.00
2018-10-12T05:01:53.196Z,39.00
2018-10-12T05:04:21.793Z,38.90
2018-10-12T05:06:50.018Z,39.00
2018-10-12T05:09:18.197Z,39.00
2018-10-12T05:11:46.436Z,39.00
2018-10-12T05:14:14.961Z,39.00
2018-10-12T05:16:43.170Z,39.10
2018-10-12T05:19:11.372Z,38.90
2018-10-12T05:21:39.617Z,39.10
2018-10-12T05:24:08.014Z,39.00
2018-10-12T05:26:36.810Z,39.10
2018-10-12T05:29:05.123Z,39.00
2018-10-12T05:31:33.438Z,39.10
2018-10-12T05:34:02.561Z,39.40
2018-10-12T05:36:51.448Z,39.30
2018-10-12T05:39:49.409Z,39.50
2018-10-12T05:42:18.737Z,39.40
2018-10-12T05:44:46.953Z,39.50
2018-10-12T05:47:15.175Z,39.60
2018-10-12T05:49:54.705Z,39.70
2018-10-12T05:52:22.969Z,39.80
2018-10-12T05:54:51.206Z,40.00
2018-10-12T05:57:19.395Z,40.10
2018-10-12T05:59:47.550Z,40.00
2018-10-12T06:02:15.814Z,40.10
2018-10-12T06:04:44.123Z,39.90
2018-10-12T06:07:12.326Z,39.80
2018-10-12T06:09:40.622Z,40.00
2018-10-12T06:12:08.738Z,40.00
2018-10-12T06:14:37.104Z,39.90
2018-10-12T06:17:05.681Z,39.50
2018-10-12T06:19:33.889Z,39.20
2018-10-12T06:22:02.082Z,39.10
2018-10-12T06:24:30.511Z,38.80
2018-10-12T06:26:58.785Z,38.60
2018-10-12T06:29:26.948Z,38.60
2018-10-12T06:31:55.131Z,38.50
2018-10-12T06:34:23.342Z,38.80
2018-10-12T06:36:51.592Z,38.50
2018-10-12T06:39:19.769Z,38.50
2018-10-12T06:41:48.210Z,38.00
2018-10-12T06:44:16.189Z,37.00
2018-10-12T06:46:44.674Z,36.40
2018-10-12T06:49:13.331Z,35.30
2018-10-12T06:51:41.512Z,34.50
2018-10-12T06:54:09.861Z,33.50
2018-10-12T06:56:38.059Z,32.40
2018-10-12T06:59:07.051Z,31.30
2018-10-12T07:01:35.233Z,30.40
2018-10-12T07:04:03.488Z,29.90
2018-10-12T07:06:31.668Z,29.40
2018-10-12T07:08:59.958Z,29.10
2018-10-12T07:11:29.213Z,28.70
2018-10-12T07:13:57.399Z,27.90
2018-10-12T07:16:25.573Z,27.00
2018-10-12T07:18:53.741Z,26.10
2018-10-12T07:21:22.116Z,25.20
2018-10-12T07:23:50.669Z,24.30
2018-10-12T07:26:18.875Z,23.70
2018-10-12T07:28:47.113Z,23.20
2018-10-12T07:31:15.550Z,22.50
2018-10-12T07:33:43.798Z,21.80
2018-10-12T07:36:12.003Z,21.30
2018-10-12T07:38:40.225Z,20.90
2018-10-12T07:41:08.437Z,20.20
2018-10-12T07:43:37.607Z,19.90
2018-10-12T07:46:06.618Z,19.50
2018-10-12T07:48:34.820Z,19.10
2018-10-12T07:51:03.029Z,18.90
2018-10-12T07:53:31.282Z,18.90
2018-10-12T07:55:59.580Z,18.70
2018-10-12T07:58:28.017Z,18.70
2018-10-12T08:00:56.237Z,18.50
2018-10-12T08:03:24.481Z,18.20
2018-10-12T08:05:53.665Z,18.00
2018-10-12T08:08:22.642Z,17.60
2018-10-12T08:10:51.040Z,17.40
2018-10-12T08:13:19.273Z,17.10
2018-10-12T08:15:47.518Z,17.10
2018-10-12T08:18:15.721Z,17.00
2018-10-12T08:20:44.665Z,16.90
2018-10-12T08:23:12.867Z,17.00
2018-10-12T08:25:41.071Z,16.80
2018-10-12T08:28:09.257Z,16.60
2018-10-12T08:30:37.564Z,16.40
2018-10-12T08:33:07.434Z,16.20
2018-10-12T08:35:35.855Z,16.10
2018-10-12T08:38:04.025Z,15.90
2018-10-12T08:40:32.245Z,15.90
2018-10-12T08:43:00.600Z,15.90
2018-10-12T08:45:28.845Z,15.80
2018-10-12T08:47:57.024Z,15.90
2018-10-12T08:50:25.237Z,15.70
2018-10-12T08:52:53.515Z,15.90
2018-10-12T08:55:22.844Z,15.70
2018-10-12T08:57:51.350Z,15.70
2018-10-12T09:00:19.591Z,15.40
2018-10-12T09:02:47.918Z,15.60
2018-10-12T09:05:16.109Z,15.60
2018-10-12T09:07:44.620Z,15.50
2018-10-12T09:10:12.870Z,15.30
2018-10-12T09:12:41.086Z,15.20
2018-10-12T09:15:09.297Z,14.70
2018-10-12T09:17:37.773Z,14.60
2018-10-12T09:20:06.651Z,14.30
2018-10-12T09:22:34.837Z,14.20
2018-10-12T09:25:03.074Z,13.80
2018-10-12T09:27:31.286Z,13.70
2018-10-12T09:29:59.573Z,13.80
2018-10-12T09:32:27.789Z,13.50
2018-10-12T09:34:56.168Z,13.40
2018-10-12T09:37:25.641Z,13.70
2018-10-12T09:39:53.857Z,13.70
2018-10-12T09:42:22.634Z,14.20
2018-10-12T09:44:51.126Z,14.30
2018-10-12T09:47:19.332Z,14.00
2018-10-12T09:49:47.555Z,13.90
2018-10-12T09:52:15.740Z,13.60
2018-10-12T09:54:44.096Z,13.80
2018-10-12T09:57:17.805Z,13.60
2018-10-12T09:59:46.042Z,14.20
2018-10-12T10:02:20.050Z,13.30
2018-10-12T10:04:48.218Z,13.20
2018-10-12T10:07:16.492Z,13.00
2018-10-12T10:09:45.378Z,12.70
2018-10-12T10:12:13.639Z,12.70
2018-10-12T10:14:41.873Z,12.50
2018-10-12T10:17:10.087Z,12.30
2018-10-12T10:19:38.371Z,12.10
2018-10-12T10:22:06.763Z,12.10
2018-10-12T10:24:34.969Z,12.00
2018-10-12T10:27:03.158Z,12.00
2018-10-12T10:29:31.363Z,12.30
2018-10-12T10:32:00.454Z,12.30
2018-10-12T10:34:28.853Z,12.40
2018-10-12T10:36:57.088Z,12.30
2018-10-12T10:39:25.273Z,12.20
2018-10-12T10:41:53.581Z,12.00
2018-10-12T10:44:21.832Z,11.90
2018-10-12T10:46:50.063Z,11.80
2018-10-12T10:49:18.283Z,11.90
2018-10-12T10:51:46.489Z,11.70
2018-10-12T10:54:14.845Z,11.50
2018-10-12T10:56:43.170Z,11.70
2018-10-12T10:59:11.399Z,11.60
2018-10-12T11:01:40.140Z,11.60
2018-10-12T11:04:08.744Z,11.70
2018-10-12T11:06:37.333Z,11.90
2018-10-12T11:09:08.650Z,11.90
2018-10-12T11:11:36.956Z,11.80
2018-10-12T11:14:05.138Z,11.70
2018-10-12T11:16:33.365Z,11.70
2018-10-12T11:19:01.546Z,11.90
2018-10-12T11:21:30.437Z,11.90
2018-10-12T11:23:59.230Z,11.90
2018-10-12T11:26:27.474Z,12.00
2018-10-12T11:28:55.666Z,11.90
2018-10-12T11:31:23.861Z,12.00
2018-10-12T11:33:52.130Z,12.00
2018-10-12T11:36:21.112Z,12.10
2018-10-12T11:38:49.302Z,12.40
2018-10-12T11:41:17.526Z,12.30
2018-10-12T11:43:45.767Z,12.60
2018-10-12T11:46:14.720Z,12.60
2018-10-12T11:48:42.929Z,12.10
2018-10-12T11:51:11.144Z,12.20
2018-10-12T11:53:39.346Z,12.10
2018-10-12T11:56:07.697Z,11.90
2018-10-12T11:58:36.066Z,11.80
2018-10-12T12:01:04.400Z,11.90
2018-10-12T12:03:32.514Z,11.70
2018-10-12T12:06:00.867Z,11.80
2018-10-12T12:08:29.068Z,11.70
2018-10-12T12:10:57.262Z,11.90
2018-10-12T12:13:25.479Z,12.10
2018-10-12T12:15:53.641Z,12.20
2018-10-12T12:18:22.612Z,12.20
2018-10-12T12:20:50.847Z,12.20
2018-10-12T12:23:19.037Z,12.00
2018-10-12T12:25:47.216Z,12.00
2018-10-12T12:28:15.626Z,12.10
2018-10-12T12:30:44.054Z,12.10
2018-10-12T12:33:12.267Z,12.20
2018-10-12T12:35:40.842Z,12.40
2018-10-12T12:38:08.718Z,13.00
2018-10-12T12:40:37.570Z,12.50
2018-10-12T12:43:05.766Z,12.70
2018-10-12T12:45:33.999Z,13.20
2018-10-12T12:48:02.486Z,13.70
2018-10-12T12:50:31.265Z,14.30
2018-10-12T12:53:00.080Z,15.30
2018-10-12T12:55:30.545Z,16.00
2018-10-12T12:57:58.877Z,16.50
2018-10-12T13:00:27.244Z,16.60
2018-10-12T13:02:55.395Z,16.50
2018-10-12T13:05:23.613Z,17.30
2018-10-12T13:07:51.825Z,17.00
2018-10-12T13:10:20.057Z,17.20
2018-10-12T13:12:48.273Z,17.30
2018-10-12T13:15:16.498Z,17.60
2018-10-12T13:17:44.973Z,17.90
2018-10-12T13:20:13.169Z,18.80
2018-10-12T13:22:41.712Z,19.50
2018-10-12T13:25:09.927Z,20.30
2018-10-12T13:27:38.251Z,20.90
2018-10-12T13:30:06.542Z,21.30
2018-10-12T13:32:34.739Z,22.00
2018-10-12T13:35:02.957Z,22.40
2018-10-12T13:37:31.191Z,23.00
2018-10-12T13:39:59.818Z,23.20
2018-10-12T13:42:27.906Z,23.80
2018-10-12T13:44:56.200Z,24.20
2018-10-12T13:47:24.381Z,24.60
2018-10-12T13:49:52.752Z,25.60
2018-10-12T13:52:21.118Z,25.40
2018-10-12T13:54:49.314Z,25.60
2018-10-12T13:57:17.977Z,25.90
2018-10-12T13:59:47.493Z,26.00
2018-10-12T14:02:16.328Z,26.10
2018-10-12T14:04:44.618Z,26.20
2018-10-12T14:07:13.064Z,25.90
2018-10-12T14:09:41.231Z,25.90
2018-10-12T14:12:09.597Z,26.00
2018-10-12T14:14:38.922Z,25.90
2018-10-12T14:17:07.357Z,25.60
2018-10-12T14:19:35.761Z,25.30
2018-10-12T14:22:04.027Z,25.40
2018-10-12T14:24:32.365Z,25.20
2018-10-12T14:27:02.069Z,25.40
2018-10-12T14:29:30.418Z,25.50
2018-10-12T14:31:58.636Z,26.00
2018-10-12T14:34:26.893Z,25.90
2018-10-12T14:36:55.103Z,26.30
2018-10-12T14:39:23.401Z,26.10
2018-10-12T14:41:51.776Z,25.70
2018-10-12T14:44:20.163Z,25.80
2018-10-12T14:46:48.289Z,26.20
2018-10-12T14:49:16.612Z,26.00
2018-10-12T14:51:45.146Z,26.20
2018-10-12T14:54:13.975Z,25.90
2018-10-12T14:56:42.300Z,25.70
2018-10-12T14:59:10.605Z,25.70
2018-10-12T15:01:38.869Z,25.90
2018-10-12T15:04:07.182Z,25.80
2018-10-12T15:06:35.423Z,25.60
2018-10-12T15:09:04.869Z,25.00
2018-10-12T15:11:33.355Z,25.50
2018-10-12T15:14:01.610Z,25.30
2018-10-12T15:16:29.980Z,25.70
2018-10-12T15:18:58.188Z,25.40
2018-10-12T15:21:26.646Z,24.60
2018-10-12T15:23:54.622Z,24.60
2018-10-12T15:26:22.933Z,24.60
2018-10-12T15:28:51.165Z,25.00
2018-10-12T15:31:19.457Z,25.60
2018-10-12T15:33:48.054Z,25.70
2018-10-12T15:36:16.357Z,25.90
2018-10-12T15:38:45.438Z,26.40
2018-10-12T15:41:14.114Z,26.80
2018-10-12T15:43:42.309Z,26.20
2018-10-12T15:46:10.541Z,25.90
2018-10-12T15:48:38.877Z,26.50
2018-10-12T15:51:07.533Z,26.10
2018-10-12T15:53:35.773Z,26.30
2018-10-12T15:56:04.037Z,25.70
2018-10-12T15:58:32.307Z,25.60
2018-10-12T16:01:00.600Z,25.20
2018-10-12T16:03:29.027Z,25.00
2018-10-12T16:05:57.306Z,25.10
2018-10-12T16:08:25.505Z,25.10
2018-10-12T16:10:53.860Z,25.50
2018-10-12T16:13:22.393Z,25.80
2018-10-12T16:15:50.825Z,26.20
2018-10-12T16:18:19.079Z,26.70
2018-10-12T16:20:47.308Z,27.30
2018-10-12T16:23:15.598Z,27.50
2018-10-12T16:25:57.433Z,28.10
2018-10-12T16:28:25.649Z,28.30
2018-10-12T16:30:54.894Z,28.80
2018-10-12T16:33:23.443Z,28.70
2018-10-12T16:35:53.020Z,28.90
2018-10-12T16:38:21.226Z,29.80
2018-10-12T16:40:49.403Z,29.50
2018-10-12T16:43:17.758Z,29.90
2018-10-12T16:45:47.590Z,30.60
2018-10-12T16:48:15.910Z,30.00
2018-10-12T16:50:44.201Z,30.10
2018-10-12T16:53:12.867Z,30.10
2018-10-12T16:55:41.162Z,30.50
2018-10-12T16:58:10.670Z,30.60
2018-10-12T17:00:38.884Z,30.60
2018-10-12T17:03:07.156Z,30.70
2018-10-12T17:05:35.390Z,31.00
2018-10-12T17:08:03.576Z,31.00
2018-10-12T17:10:32.545Z,31.40
2018-10-12T17:13:01.958Z,31.50
2018-10-12T17:15:30.390Z,31.40
2018-10-12T17:17:59.416Z,31.50
2018-10-12T17:20:27.749Z,31.50
2018-10-12T17:22:55.966Z,31.50
2018-10-12T17:25:24.194Z,31.70
2018-10-12T17:27:53.360Z,31.70
2018-10-12T17:30:21.687Z,32.10
2018-10-12T17:32:49.775Z,32.40
2018-10-12T17:35:18.074Z,32.40
2018-10-12T17:37:46.262Z,32.60
2018-10-12T17:40:14.533Z,32.60
2018-10-12T17:42:42.823Z,32.90
2018-10-12T17:45:11.474Z,32.90
2018-10-12T17:47:39.749Z,33.00
2018-10-12T17:50:08.540Z,33.90
2018-10-12T17:52:36.777Z,32.60
2018-10-12T17:55:05.042Z,33.30
2018-10-12T17:57:33.353Z,33.20
2018-10-12T18:00:01.626Z,33.20
2018-10-12T18:02:29.953Z,33.40
2018-10-12T18:04:58.181Z,33.80
2018-10-12T18:07:26.559Z,33.90
2018-10-12T18:09:54.766Z,34.00
2018-10-12T18:12:23.854Z,34.00
2018-10-12T18:14:52.206Z,34.30
2018-10-12T18:17:20.383Z,34.50
2018-10-12T18:19:48.654Z,34.50
2018-10-12T18:22:16.875Z,34.50
2018-10-12T18:24:45.310Z,34.30
2018-10-12T18:27:13.807Z,34.20
2018-10-12T18:29:42.085Z,34.40
2018-10-12T18:32:10.293Z,34.70
2018-10-12T18:34:38.577Z,34.30
2018-10-12T18:37:06.907Z,34.40
2018-10-12T18:39:35.111Z,34.90
2018-10-12T18:42:03.285Z,34.90
2018-10-12T18:44:31.477Z,34.90
2018-10-12T18:46:59.916Z,34.80
2018-10-12T18:49:28.333Z,35.10
2018-10-12T18:51:56.642Z,35.10
2018-10-12T18:54:24.928Z,35.50
2018-10-12T18:56:53.194Z,35.20
2018-10-12T18:59:21.619Z,35.30
2018-10-12T19:01:49.777Z,35.40
2018-10-12T19:04:18.064Z,35.30
2018-10-12T19:06:46.306Z,35.30
2018-10-12T19:09:14.580Z,35.20
2018-10-12T19:11:42.762Z,35.30
2018-10-12T19:14:11.114Z,35.50
2018-10-12T19:16:39.315Z,35.50
2018-10-12T19:19:07.928Z,35.60
2018-10-12T19:21:36.341Z,35.60
2018-10-12T19:24:05.155Z,35.70
2018-10-12T19:26:33.341Z,35.70
2018-10-12T19:29:01.651Z,35.80
2018-10-12T19:31:30.769Z,35.90
2018-10-12T19:33:59.061Z,36.00
2018-10-12T19:36:27.250Z,36.70
2018-10-12T19:38:55.545Z,36.20
2018-10-12T19:41:23.737Z,36.30
2018-10-12T19:43:52.062Z,36.40
2018-10-12T19:46:20.460Z,36.30
2018-10-12T19:48:49.161Z,36.20
2018-10-12T19:51:17.488Z,36.20
2018-10-12T19:53:45.989Z,36.30
2018-10-12T19:56:14.457Z,36.40
2018-10-12T19:58:42.689Z,36.40
2018-10-12T20:01:10.920Z,36.40
2018-10-12T20:03:39.109Z,36.50
2018-10-12T20:06:07.523Z,36.70
2018-10-12T20:08:36.042Z,36.60
2018-10-12T20:11:04.234Z,36.40
2018-10-12T20:13:32.413Z,36.30
2018-10-12T20:16:01.211Z,36.40
2018-10-12T20:18:30.216Z,36.50
2018-10-12T20:20:58.570Z,36.50
2018-10-12T20:23:26.787Z,36.50
2018-10-12T20:25:55.029Z,36.60
2018-10-12T20:28:23.411Z,36.60
2018-10-12T20:30:51.917Z,36.90
2018-10-12T20:33:20.181Z,37.00
2018-10-12T20:35:50.302Z,37.00
2018-10-12T20:38:18.485Z,37.10
2018-10-12T20:40:46.702Z,37.00
2018-10-12T20:43:15.409Z,37.10
2018-10-12T20:45:44.569Z,37.00
2018-10-12T20:48:12.957Z,37.10
2018-10-12T20:50:41.305Z,37.20
2018-10-12T20:53:09.558Z,37.20
2018-10-12T20:55:37.978Z,37.40
2018-10-12T20:58:10.818Z,37.50
2018-10-12T21:00:39.196Z,37.60
2018-10-12T21:03:07.821Z,37.70
2018-10-12T21:05:36.029Z,37.70
2018-10-12T21:08:04.262Z,37.90
2018-10-12T21:10:32.461Z,37.80
2018-10-12T21:13:00.743Z,37.80
2018-10-12T21:15:29.173Z,38.00
2018-10-12T21:17:57.395Z,37.90
2018-10-12T21:20:25.541Z,38.00
2018-10-12T21:22:53.747Z,38.90
2018-10-12T21:25:23.277Z,38.30
2018-10-12T21:27:51.594Z,38.50
2018-10-12T21:30:19.780Z,38.50
2018-10-12T21:32:48.035Z,38.50
2018-10-12T21:35:16.266Z,38.70
2018-10-12T21:37:44.529Z,38.60
2018-10-12T21:40:12.725Z,38.70
2018-10-12T21:42:40.919Z,38.60
2018-10-12T21:45:09.238Z,38.40
2018-10-12T21:47:38.111Z,38.60
2018-10-12T21:50:06.445Z,38.90
2018-10-12T21:52:34.887Z,39.00
2018-10-12T21:55:03.393Z,39.10
2018-10-12T21:57:31.603Z,39.20
2018-10-12T21:59:59.977Z,39.30
2018-10-12T22:02:28.219Z,39.40
2018-10-12T22:04:56.416Z,39.40
2018-10-12T22:07:24.615Z,39.70
2018-10-12T22:09:53.049Z,39.70
2018-10-12T22:12:21.458Z,39.50
2018-10-12T22:14:49.659Z,39.50
2018-10-12T22:17:17.850Z,39.50
2018-10-12T22:19:46.254Z,39.50
2018-10-12T22:22:15.499Z,39.40
2018-10-12T22:24:43.906Z,39.40
2018-10-12T22:27:12.098Z,39.50
2018-10-12T22:29:40.329Z,39.80
2018-10-12T22:32:08.722Z,40.10
2018-10-12T22:34:37.341Z,40.30
2018-10-12T22:37:06.126Z,40.60
2018-10-12T22:39:34.466Z,40.40
2018-10-12T22:42:02.741Z,40.60
2018-10-12T22:44:31.157Z,40.60
2018-10-12T22:47:00.349Z,40.60
2018-10-12T22:49:28.634Z,40.80
2018-10-12T22:51:56.837Z,40.90
2018-10-12T22:54:25.062Z,40.90
2018-10-12T22:56:53.394Z,41.20
2018-10-12T22:59:22.189Z,41.10
2018-10-12T23:01:50.393Z,41.20
2018-10-12T23:04:18.818Z,41.20
2018-10-12T23:06:46.980Z,41.10
2018-10-12T23:09:15.497Z,41.20
2018-10-12T23:11:44.080Z,41.00
2018-10-12T23:14:12.258Z,41.00
2018-10-12T23:16:40.874Z,41.30
2018-10-12T23:19:10.597Z,41.10
2018-10-12T23:21:39.265Z,41.10
2018-10-12T23:24:07.551Z,41.20
2018-10-12T23:26:35.777Z,41.40
2018-10-12T23:29:04.067Z,41.30
2018-10-12T23:31:32.318Z,41.20
2018-10-12T23:34:07.501Z,41.20
2018-10-12T23:36:35.697Z,41.20
2018-10-12T23:39:05.225Z,41.20
2018-10-12T23:41:33.514Z,41.30
2018-10-12T23:44:01.793Z,41.30
2018-10-12T23:46:30.277Z,41.10
2018-10-12T23:48:58.472Z,41.20
2018-10-12T23:51:26.705Z,41.00
2018-10-12T23:53:54.998Z,41.00
2018-10-12T23:56:23.427Z,41.00
2018-10-12T23:58:51.660Z,41.20
